createdAt,value
2023-05-12T00:00:37.475Z,2.42
2023-05-12T00:02:39.133Z,3.10
2023-05-12T00:04:43.667Z,5.05
2023-05-12T00:06:48.543Z,2.67
2023-05-12T00:08:52.713Z,3.58
2023-05-12T00:10:54.176Z,2.63
2023-05-12T00:12:57.075Z,3.78
2023-05-12T00:14:58.767Z,2.03
2023-05-12T00:17:03.828Z,2.70
2023-05-12T00:19:05.337Z,3.17
2023-05-12T00:21:11.277Z,3.38
2023-05-12T00:23:15.915Z,3.47
2023-05-12T00:25:18.766Z,2.78
2023-05-12T00:27:20.984Z,1.80
2023-05-12T00:29:25.655Z,4.18
2023-05-12T00:31:46.067Z,2.17
2023-05-12T00:33:47.536Z,3.65
2023-05-12T00:35:51.800Z,3.10
2023-05-12T00:37:53.639Z,1.90
2023-05-12T00:39:55.415Z,6.57
2023-05-12T00:41:59.841Z,2.28
2023-05-12T00:44:04.370Z,3.47
2023-05-12T00:46:06.388Z,4.22
2023-05-12T00:48:07.904Z,5.43
2023-05-12T00:50:09.702Z,2.25
2023-05-12T00:52:14.153Z,3.03
2023-05-12T00:54:20.074Z,4.38
2023-05-12T00:56:25.359Z,2.13
2023-05-12T00:58:29.455Z,2.83
2023-05-12T01:00:31.209Z,4.38
2023-05-12T01:02:36.501Z,5.97
2023-05-12T01:04:42.574Z,6.30
2023-05-12T01:06:48.036Z,7.63
2023-05-12T01:08:51.698Z,6.72
2023-05-12T01:10:56.464Z,10.60
2023-05-12T01:13:00.457Z,8.98
2023-05-12T01:15:02.928Z,9.57
2023-05-12T01:17:08.892Z,6.30
2023-05-12T01:19:20.207Z,6.50
2023-05-12T01:21:23.456Z,6.53
2023-05-12T01:23:28.438Z,6.43
2023-05-12T01:25:32.668Z,4.78
2023-05-12T01:27:37.126Z,7.38
2023-05-12T01:29:40.724Z,5.82
2023-05-12T01:31:42.675Z,4.20
2023-05-12T01:33:50.012Z,5.80
2023-05-12T01:35:52.797Z,6.18
2023-05-12T01:37:55.086Z,8.45
2023-05-12T01:39:59.833Z,5.78
2023-05-12T01:42:01.805Z,4.97
2023-05-12T01:44:04.664Z,9.43
2023-05-12T01:46:11.602Z,9.82
2023-05-12T01:48:32.871Z,6.63
2023-05-12T01:50:37.078Z,7.40
2023-05-12T01:52:41.390Z,6.80
2023-05-12T01:54:42.794Z,13.75
2023-05-12T01:56:46.884Z,10.52
2023-05-12T01:58:51.237Z,8.10
2023-05-12T02:00:52.780Z,11.60
2023-05-12T02:02:54.256Z,7.60
2023-05-12T02:04:55.846Z,9.52
2023-05-12T02:07:02.846Z,12.23
2023-05-12T02:09:23.018Z,7.07
2023-05-12T02:11:24.768Z,8.32
2023-05-12T02:13:29.862Z,8.80
2023-05-12T02:15:49.743Z,10.98
2023-05-12T02:17:55.309Z,10.50
2023-05-12T02:20:00.397Z,8.30
2023-05-12T02:22:03.497Z,8.55
2023-05-12T02:24:23.295Z,7.88
2023-05-12T02:26:28.170Z,8.98
2023-05-12T02:28:30.296Z,8.43
2023-05-12T02:30:34.934Z,8.73
2023-05-12T02:32:54.869Z,11.65
2023-05-12T02:34:59.383Z,9.25
2023-05-12T02:37:01.342Z,8.43
2023-05-12T02:39:03.196Z,7.55
2023-05-12T02:41:04.676Z,7.85
2023-05-12T02:43:24.877Z,7.43
2023-05-12T02:47:33.013Z,11.55
2023-05-12T02:49:37.769Z,7.22
2023-05-12T02:51:41.848Z,7.38
2023-05-12T02:53:44.343Z,6.93
2023-05-12T02:56:05.112Z,13.93
2023-05-12T02:58:09.490Z,4.85
2023-05-12T03:00:29.665Z,11.45
2023-05-12T03:02:31.128Z,7.32
2023-05-12T03:04:53.052Z,7.22
2023-05-12T03:06:57.511Z,7.28
2023-05-12T03:08:59.796Z,7.60
2023-05-12T03:11:04.580Z,5.20
2023-05-12T03:13:06.142Z,4.97
2023-05-12T03:15:08.891Z,7.03
2023-05-12T03:17:10.896Z,5.65
2023-05-12T03:19:18.427Z,8.45
2023-05-12T03:21:24.196Z,5.50
2023-05-12T03:23:26.016Z,5.13
2023-05-12T03:25:30.826Z,6.47
2023-05-12T03:27:38.311Z,6.30
2023-05-12T03:29:39.776Z,9.60
2023-05-12T03:33:46.533Z,9.05
2023-05-12T03:35:51.813Z,9.48
2023-05-12T03:37:56.661Z,6.55
2023-05-12T03:39:58.344Z,10.07
2023-05-12T03:42:02.944Z,10.00
2023-05-12T03:44:11.159Z,10.32
2023-05-12T03:46:12.892Z,6.20
2023-05-12T03:48:14.407Z,6.75
2023-05-12T03:50:16.001Z,7.43
2023-05-12T03:52:20.358Z,8.02
2023-05-12T03:54:25.426Z,7.50
2023-05-12T03:56:45.893Z,4.82
2023-05-12T03:58:47.419Z,4.82
2023-05-12T04:00:50.191Z,3.42
2023-05-12T04:02:57.693Z,5.88
2023-05-12T04:05:02.244Z,4.97
2023-05-12T04:09:08.344Z,5.40
2023-05-12T04:11:10.768Z,5.93
2023-05-12T04:13:14.926Z,4.10
2023-05-12T04:15:19.012Z,5.15
2023-05-12T04:17:20.498Z,3.25
2023-05-12T04:19:22.808Z,5.50
2023-05-12T04:21:24.684Z,6.35
2023-05-12T04:23:27.791Z,5.07
2023-05-12T04:25:34.245Z,4.05
2023-05-12T04:27:37.643Z,5.15
2023-05-12T04:29:41.726Z,3.50
2023-05-12T04:31:44.092Z,3.97
2023-05-12T04:33:48.339Z,5.65
2023-05-12T04:35:55.205Z,7.65
2023-05-12T04:38:01.526Z,7.68
2023-05-12T04:40:07.187Z,10.65
2023-05-12T04:42:11.888Z,6.03
2023-05-12T04:44:16.365Z,14.85
2023-05-12T04:46:36.993Z,9.05
2023-05-12T04:48:42.781Z,11.18
2023-05-12T04:50:46.424Z,11.63
2023-05-12T04:52:48.376Z,12.05
2023-05-12T04:57:12.642Z,20.95
2023-05-12T04:59:17.732Z,24.98
2023-05-12T05:01:22.451Z,21.52
2023-05-12T05:03:29.937Z,23.42
2023-05-12T05:05:31.609Z,33.65
2023-05-12T05:07:33.218Z,28.98
2023-05-12T05:09:39.246Z,28.73
2023-05-12T05:11:42.711Z,33.22
2023-05-12T05:13:46.585Z,30.20
2023-05-12T05:15:53.889Z,30.42
2023-05-12T05:17:58.964Z,35.10
2023-05-12T05:20:09.502Z,30.67
2023-05-12T05:22:17.639Z,31.52
2023-05-12T05:24:21.101Z,31.95
2023-05-12T05:26:24.224Z,35.05
2023-05-12T05:28:45.917Z,31.85
2023-05-12T05:30:52.765Z,30.45
2023-05-12T05:35:02.182Z,32.47
2023-05-12T05:37:05.723Z,32.50
2023-05-12T05:39:12.137Z,33.70
2023-05-12T05:41:18.316Z,31.90
2023-05-12T05:43:21.599Z,30.45
2023-05-12T05:45:28.073Z,27.77
2023-05-12T05:47:32.618Z,30.80
2023-05-12T05:49:37.175Z,31.08
2023-05-12T05:51:38.718Z,29.15
2023-05-12T05:55:48.693Z,31.38
2023-05-12T05:57:53.207Z,25.95
2023-05-12T06:00:14.315Z,29.88
2023-05-12T06:02:16.681Z,32.67
2023-05-12T06:04:21.124Z,29.05
2023-05-12T06:06:22.735Z,29.77
2023-05-12T06:08:27.328Z,28.23
2023-05-12T06:10:28.934Z,31.23
2023-05-12T06:12:33.262Z,26.42
2023-05-12T06:14:37.581Z,34.67
2023-05-12T06:16:41.983Z,31.35
2023-05-12T06:18:46.161Z,26.90
2023-05-12T06:20:50.646Z,29.25
2023-05-12T06:22:52.249Z,35.05
2023-05-12T06:25:12.588Z,29.60
2023-05-12T06:27:32.728Z,32.08
2023-05-12T06:29:34.671Z,29.95
2023-05-12T06:31:36.173Z,29.70
2023-05-12T06:33:37.649Z,25.30
2023-05-12T06:35:39.121Z,28.33
2023-05-12T06:37:49.332Z,27.40
2023-05-12T06:39:53.474Z,31.83
2023-05-12T06:41:57.641Z,20.88
2023-05-12T06:44:01.561Z,23.35
2023-05-12T06:46:03.236Z,15.27
2023-05-12T06:48:09.305Z,16.42
2023-05-12T06:50:15.498Z,14.30
2023-05-12T06:52:20.592Z,10.25
2023-05-12T06:54:24.832Z,14.07
2023-05-12T06:58:30.945Z,10.15
2023-05-12T07:00:35.241Z,10.63
2023-05-12T07:02:39.726Z,10.30
2023-05-12T07:04:44.307Z,16.13
2023-05-12T07:06:45.878Z,10.75
2023-05-12T07:09:06.008Z,11.48
2023-05-12T07:11:10.387Z,11.55
2023-05-12T07:13:11.819Z,14.13
2023-05-12T07:15:13.420Z,12.35
2023-05-12T07:17:17.704Z,13.25
2023-05-12T07:19:19.118Z,12.02
2023-05-12T07:21:39.616Z,11.82
2023-05-12T07:23:43.967Z,12.48
2023-05-12T07:25:48.421Z,11.23
2023-05-12T07:27:50.491Z,12.23
2023-05-12T07:29:54.946Z,11.23
2023-05-12T07:31:56.480Z,14.38
2023-05-12T07:33:57.883Z,14.65
2023-05-12T07:38:22.441Z,13.57
2023-05-12T07:40:23.945Z,14.13
2023-05-12T07:42:25.471Z,13.90
2023-05-12T07:44:27.622Z,10.07
2023-05-12T07:46:31.943Z,9.68
2023-05-12T07:48:52.013Z,10.80
2023-05-12T07:50:53.501Z,10.05
2023-05-12T07:52:55.504Z,10.38
2023-05-12T07:54:59.805Z,11.32
2023-05-12T07:57:04.586Z,13.15
2023-05-12T07:59:06.420Z,13.57
2023-05-12T08:01:09.214Z,8.38
2023-05-12T08:03:13.631Z,10.32
2023-05-12T08:05:18.397Z,7.57
2023-05-12T08:07:20.128Z,9.32
2023-05-12T08:09:24.164Z,9.10
2023-05-12T08:11:28.688Z,8.75
2023-05-12T08:13:30.129Z,7.53
2023-05-12T08:15:31.681Z,8.13
2023-05-12T08:17:33.231Z,7.38
2023-05-12T08:19:36.515Z,7.28
2023-05-12T08:21:38.384Z,9.00
2023-05-12T08:23:47.015Z,10.57
2023-05-12T08:25:58.871Z,11.50
2023-05-12T08:28:12.014Z,7.65
2023-05-12T08:30:23.272Z,13.98
2023-05-12T08:32:35.819Z,6.72
2023-05-12T08:34:43.954Z,11.55
2023-05-12T08:36:51.529Z,9.88
2023-05-12T08:38:59.476Z,7.28
2023-05-12T08:41:21.630Z,7.97
2023-05-12T08:43:43.676Z,16.92
2023-05-12T08:46:11.647Z,9.57
2023-05-12T08:48:29.242Z,10.63
2023-05-12T08:50:38.771Z,10.65
2023-05-12T08:52:47.331Z,8.38
2023-05-12T08:54:56.556Z,6.22
2023-05-12T08:59:23.398Z,6.30
2023-05-12T09:01:28.070Z,6.50
2023-05-12T09:03:33.175Z,5.55
2023-05-12T09:05:34.834Z,5.47
2023-05-12T09:07:40.160Z,10.77
2023-05-12T09:09:44.112Z,4.88
2023-05-12T09:11:49.928Z,4.80
2023-05-12T09:14:06.593Z,5.78
2023-05-12T09:16:12.038Z,4.30
2023-05-12T09:18:16.507Z,5.63
2023-05-12T09:20:30.846Z,6.00
2023-05-12T09:22:34.957Z,4.50
2023-05-12T09:24:40.458Z,8.68
2023-05-12T09:26:52.207Z,6.15
2023-05-12T09:29:06.364Z,7.22
2023-05-12T09:31:14.786Z,7.00
2023-05-12T09:33:19.173Z,4.30
2023-05-12T09:35:23.362Z,4.65
2023-05-12T09:37:31.939Z,3.20
2023-05-12T09:39:58.885Z,4.88
2023-05-12T09:42:03.104Z,7.93
2023-05-12T09:44:08.444Z,4.40
2023-05-12T09:46:28.580Z,4.82
2023-05-12T09:48:33.660Z,5.28
2023-05-12T09:50:46.569Z,5.25
2023-05-12T09:53:07.977Z,11.35
2023-05-12T09:55:10.537Z,3.58
2023-05-12T09:57:16.329Z,5.00
2023-05-12T09:59:18.279Z,3.50
2023-05-12T10:01:23.390Z,5.10
2023-05-12T10:03:26.496Z,4.22
2023-05-12T10:05:28.355Z,4.13
2023-05-12T10:07:33.106Z,3.20
2023-05-12T10:09:39.417Z,6.93
2023-05-12T10:11:41.330Z,2.83
2023-05-12T10:13:43.550Z,9.93
2023-05-12T10:15:46.777Z,4.38
2023-05-12T10:17:50.302Z,4.47
2023-05-12T10:19:59.102Z,6.43
2023-05-12T10:22:03.996Z,3.85
2023-05-12T10:24:08.197Z,3.05
2023-05-12T10:26:10.270Z,6.28
2023-05-12T10:28:14.625Z,3.80
2023-05-12T10:30:16.365Z,3.10
2023-05-12T10:32:20.807Z,12.88
2023-05-12T10:34:30.194Z,6.47
2023-05-12T10:36:31.792Z,4.72
2023-05-12T10:38:37.226Z,4.22
2023-05-12T10:40:54.040Z,5.68
2023-05-12T10:42:58.170Z,4.80
2023-05-12T10:45:04.628Z,1.98
2023-05-12T10:47:15.056Z,2.05
2023-05-12T10:49:16.553Z,5.18
2023-05-12T10:51:42.557Z,5.72
2023-05-12T10:53:51.181Z,2.63
2023-05-12T10:55:57.562Z,3.08
2023-05-12T10:58:12.554Z,3.78
2023-05-12T11:00:22.225Z,2.05
2023-05-12T11:02:34.214Z,5.18
2023-05-12T11:04:48.182Z,4.22
2023-05-12T11:07:01.182Z,2.35
2023-05-12T11:09:05.033Z,4.47
2023-05-12T11:11:06.711Z,4.65
2023-05-12T11:13:11.059Z,3.40
2023-05-12T11:15:17.260Z,4.75
2023-05-12T11:17:19.447Z,2.95
2023-05-12T11:19:23.490Z,6.20
2023-05-12T11:21:26.452Z,3.47
2023-05-12T11:23:32.200Z,4.25
2023-05-12T11:25:36.653Z,5.13
2023-05-12T11:27:44.744Z,3.10
2023-05-12T11:29:55.783Z,5.90
2023-05-12T11:32:02.870Z,5.28
2023-05-12T11:34:11.809Z,7.93
2023-05-12T11:36:14.738Z,1.52
2023-05-12T11:38:17.444Z,2.38
2023-05-12T11:40:22.438Z,4.43
2023-05-12T11:42:25.815Z,2.10
2023-05-12T11:44:34.811Z,2.22
2023-05-12T11:47:00.463Z,3.28
2023-05-12T11:49:11.934Z,1.33
2023-05-12T11:51:18.322Z,4.70
2023-05-12T11:53:27.120Z,3.40
2023-05-12T11:55:31.703Z,6.65
2023-05-12T11:58:02.144Z,5.95
2023-05-12T12:00:12.887Z,7.65
2023-05-12T12:02:22.663Z,4.43
2023-05-12T12:04:52.119Z,6.20
2023-05-12T12:06:58.047Z,5.72
2023-05-12T12:09:04.076Z,5.00
2023-05-12T12:11:08.402Z,3.95
2023-05-12T12:13:13.611Z,2.97
2023-05-12T12:15:15.123Z,6.70
2023-05-12T12:17:16.563Z,2.00
2023-05-12T12:19:18.008Z,3.88
2023-05-12T12:21:23.041Z,3.03
2023-05-12T12:23:27.167Z,1.48
2023-05-12T12:25:31.635Z,1.50
2023-05-12T12:27:33.094Z,2.05
2023-05-12T12:29:52.979Z,3.20
2023-05-12T12:31:54.532Z,2.47
2023-05-12T12:33:59.108Z,3.55
2023-05-12T12:36:00.565Z,2.10
2023-05-12T12:38:02.232Z,2.50
2023-05-12T12:40:08.297Z,2.40
2023-05-12T12:42:13.413Z,3.42
2023-05-12T12:44:20.930Z,3.55
2023-05-12T12:46:22.412Z,4.32
2023-05-12T12:48:24.264Z,1.38
2023-05-12T12:50:44.489Z,3.05
2023-05-12T12:52:45.935Z,2.15
2023-05-12T12:54:47.487Z,3.50
2023-05-12T12:56:51.699Z,1.48
2023-05-12T12:58:53.141Z,1.70
2023-05-12T13:00:54.639Z,6.13
2023-05-12T13:02:59.345Z,2.35
2023-05-12T13:05:06.034Z,4.88
2023-05-12T13:07:07.990Z,5.65
2023-05-12T13:09:28.185Z,3.13
2023-05-12T13:11:29.667Z,4.97
2023-05-12T13:13:31.371Z,1.77
2023-05-12T13:15:32.939Z,4.43
2023-05-12T13:17:34.482Z,3.63
2023-05-12T13:19:37.905Z,5.75
2023-05-12T13:21:40.573Z,2.53
2023-05-12T13:24:00.562Z,5.30
2023-05-12T13:26:05.194Z,6.22
2023-05-12T13:28:06.673Z,3.10
2023-05-12T13:30:08.385Z,7.32
2023-05-12T13:32:13.735Z,2.45
2023-05-12T13:34:34.535Z,2.75
2023-05-12T13:36:36.171Z,2.33
2023-05-12T13:38:38.268Z,2.38
2023-05-12T13:40:39.751Z,4.72
2023-05-12T13:42:41.411Z,3.60
2023-05-12T13:44:45.879Z,3.72
2023-05-12T13:46:47.489Z,1.92
2023-05-12T13:48:52.527Z,2.35
2023-05-12T13:50:56.645Z,3.42
2023-05-12T13:53:01.045Z,2.83
2023-05-12T13:55:05.556Z,4.70
2023-05-12T13:57:10.205Z,2.15
2023-05-12T13:59:14.773Z,2.08
2023-05-12T14:01:16.457Z,4.15
2023-05-12T14:03:18.099Z,10.32
2023-05-12T14:05:22.796Z,3.67
2023-05-12T14:07:25.401Z,7.95
2023-05-12T14:09:29.880Z,4.15
2023-05-12T14:11:34.891Z,5.60
2023-05-12T14:13:36.359Z,5.18
2023-05-12T14:15:48.487Z,3.90
2023-05-12T14:17:55.270Z,3.65
2023-05-12T14:19:59.846Z,3.10
2023-05-12T14:22:01.829Z,3.92
2023-05-12T14:24:08.664Z,3.63
2023-05-12T14:26:13.075Z,3.00
2023-05-12T14:28:17.668Z,1.92
2023-05-12T14:30:21.874Z,1.65
2023-05-12T14:32:23.521Z,4.43
2023-05-12T14:34:27.958Z,1.92
2023-05-12T14:36:32.812Z,3.00
2023-05-12T14:38:36.380Z,3.78
2023-05-12T14:40:40.178Z,2.20
2023-05-12T14:44:47.733Z,1.95
2023-05-12T14:46:54.886Z,3.28
2023-05-12T14:48:59.251Z,4.35
2023-05-12T14:51:02.796Z,2.58
2023-05-12T14:53:04.262Z,1.35
2023-05-12T14:55:24.513Z,3.13
2023-05-12T14:57:26.120Z,2.67
2023-05-12T14:59:30.487Z,4.60
2023-05-12T15:01:34.742Z,4.72
2023-05-12T15:03:36.440Z,3.17
2023-05-12T15:05:56.944Z,5.75
2023-05-12T15:08:05.305Z,2.30
2023-05-12T15:10:09.700Z,2.42
2023-05-12T15:12:11.190Z,3.13
2023-05-12T15:14:12.813Z,1.77
2023-05-12T15:16:14.288Z,3.65
2023-05-12T15:18:15.908Z,5.25
2023-05-12T15:20:20.595Z,4.05
2023-05-12T15:22:22.082Z,2.38
2023-05-12T15:24:28.033Z,2.00
2023-05-12T15:26:34.743Z,3.75
2023-05-12T15:28:38.306Z,6.57
2023-05-12T15:30:42.793Z,2.85
2023-05-12T15:32:44.467Z,5.03
2023-05-12T15:34:46.764Z,2.92
2023-05-12T15:36:49.018Z,7.68
2023-05-12T15:38:53.617Z,7.10
2023-05-12T15:41:14.059Z,6.15
2023-05-12T15:43:18.506Z,1.92
2023-05-12T15:45:20.175Z,2.25
2023-05-12T15:47:25.073Z,4.13
2023-05-12T15:49:26.766Z,5.10
2023-05-12T15:51:28.709Z,8.20
2023-05-12T15:53:33.420Z,2.08
2023-05-12T15:55:34.880Z,4.82
2023-05-12T15:57:36.409Z,8.38
2023-05-12T15:59:38.136Z,2.22
2023-05-12T16:01:39.595Z,4.30
2023-05-12T16:03:44.483Z,5.00
2023-05-12T16:05:49.213Z,4.63
2023-05-12T16:07:50.637Z,1.65
2023-05-12T16:09:58.427Z,5.85
2023-05-12T16:12:00.197Z,6.22
2023-05-12T16:14:02.673Z,4.10
2023-05-12T16:16:08.093Z,5.28
2023-05-12T16:18:13.292Z,5.15
2023-05-12T16:20:33.732Z,3.33
2023-05-12T16:22:55.518Z,3.95
2023-05-12T16:25:00.083Z,3.28
2023-05-12T16:27:01.661Z,6.70
2023-05-12T16:29:06.739Z,3.63
2023-05-12T16:31:08.230Z,4.22
2023-05-12T16:33:09.996Z,5.75
2023-05-12T16:35:14.729Z,6.32
2023-05-12T16:37:17.224Z,4.45
2023-05-12T16:39:19.333Z,10.40
2023-05-12T16:41:20.811Z,9.10
2023-05-12T16:43:25.066Z,6.28
2023-05-12T16:45:29.516Z,6.60
2023-05-12T16:47:33.888Z,4.88
2023-05-12T16:49:38.217Z,7.15
2023-05-12T16:51:58.529Z,5.82
2023-05-12T16:54:00.131Z,4.30
2023-05-12T16:56:01.875Z,4.50
2023-05-12T16:58:03.457Z,2.80
2023-05-12T17:00:05.787Z,7.38
2023-05-12T17:02:10.808Z,4.80
2023-05-12T17:04:15.620Z,3.72
2023-05-12T17:06:17.351Z,4.47
2023-05-12T17:08:21.685Z,7.30
2023-05-12T17:10:26.051Z,4.00
2023-05-12T17:12:45.969Z,4.22
2023-05-12T17:14:59.347Z,4.70
2023-05-12T17:17:05.587Z,6.32
2023-05-12T17:21:14.068Z,2.80
2023-05-12T17:23:34.482Z,4.85
2023-05-12T17:25:39.685Z,3.85
2023-05-12T17:27:41.236Z,2.90
2023-05-12T17:29:46.113Z,2.80
2023-05-12T17:31:49.128Z,6.78
2023-05-12T17:33:55.879Z,4.55
2023-05-12T17:36:25.037Z,3.88
2023-05-12T17:39:00.646Z,9.82
2023-05-12T17:41:07.569Z,7.57
2023-05-12T17:43:20.917Z,3.92
2023-05-12T17:45:33.256Z,6.40
2023-05-12T17:47:40.251Z,4.75
2023-05-12T17:49:49.782Z,5.93
2023-05-12T17:52:00.561Z,4.30
2023-05-12T17:54:10.796Z,2.55
2023-05-12T17:56:23.677Z,4.47
2023-05-12T17:58:33.104Z,4.13
2023-05-12T18:00:46.813Z,4.07
2023-05-12T18:02:54.285Z,4.80
2023-05-12T18:05:02.693Z,4.78
2023-05-12T18:07:08.923Z,4.28
2023-05-12T18:09:10.392Z,5.20
2023-05-12T18:11:11.877Z,7.70
2023-05-12T18:13:31.960Z,5.88
2023-05-12T18:15:33.539Z,7.53
2023-05-12T18:17:35.081Z,6.43
2023-05-12T18:19:39.411Z,8.20
2023-05-12T18:21:59.538Z,7.57
2023-05-12T18:24:03.870Z,5.88
2023-05-12T18:26:05.583Z,7.50
2023-05-12T18:28:25.603Z,11.05
2023-05-12T18:32:33.953Z,8.30
2023-05-12T18:34:38.539Z,11.40
2023-05-12T18:36:42.809Z,8.32
2023-05-12T18:38:44.393Z,6.15
2023-05-12T18:40:48.503Z,10.23
2023-05-12T18:42:50.733Z,8.20
2023-05-12T18:44:53.792Z,5.15
2023-05-12T18:46:57.896Z,7.40
2023-05-12T18:49:02.521Z,9.27
2023-05-12T18:51:06.724Z,9.13
2023-05-12T18:53:11.270Z,4.80
2023-05-12T18:55:15.549Z,4.47
2023-05-12T18:57:17.430Z,7.43
2023-05-12T18:59:18.905Z,4.82
2023-05-12T19:01:25.994Z,7.00
2023-05-12T19:03:32.165Z,6.82
2023-05-12T19:05:37.013Z,7.18
2023-05-12T19:07:38.855Z,8.30
2023-05-12T19:09:44.086Z,11.02
2023-05-12T19:11:45.532Z,8.38
2023-05-12T19:13:49.266Z,9.43
2023-05-12T19:15:53.376Z,7.75
2023-05-12T19:18:00.862Z,9.20
2023-05-12T19:20:02.683Z,9.90
2023-05-12T19:22:04.503Z,9.23
2023-05-12T19:24:06.207Z,6.85
2023-05-12T19:26:09.141Z,9.40
2023-05-12T19:28:13.568Z,7.25
2023-05-12T19:30:15.063Z,10.07
2023-05-12T19:32:16.653Z,8.45
2023-05-12T19:34:37.096Z,9.68
2023-05-12T19:36:41.213Z,6.82
2023-05-12T19:38:44.184Z,7.93
2023-05-12T19:40:48.450Z,8.55
2023-05-12T19:42:50.431Z,12.35
2023-05-12T19:44:54.757Z,10.10
2023-05-12T19:47:14.992Z,10.32
2023-05-12T19:49:16.525Z,6.07
2023-05-12T19:51:18.006Z,13.13
2023-05-12T19:53:19.430Z,9.50
2023-05-12T19:55:23.958Z,8.18
2023-05-12T19:57:25.654Z,8.35
2023-05-12T19:59:30.132Z,8.00
2023-05-12T20:01:34.531Z,7.18
2023-05-12T20:03:44.781Z,6.65
2023-05-12T20:05:48.430Z,8.38
2023-05-12T20:08:08.834Z,10.82
2023-05-12T20:10:10.716Z,10.43
2023-05-12T20:12:14.989Z,11.73
2023-05-12T20:14:16.613Z,9.40
2023-05-12T20:16:21.242Z,14.57
2023-05-12T20:18:25.502Z,10.27
2023-05-12T20:20:29.945Z,10.05
2023-05-12T20:22:50.039Z,9.95
2023-05-12T20:24:51.543Z,11.00
2023-05-12T20:26:53.151Z,8.52
2023-05-12T20:28:57.518Z,14.32
2023-05-12T20:30:59.529Z,8.77
2023-05-12T20:33:01.299Z,10.52
2023-05-12T20:35:06.429Z,10.40
2023-05-12T20:37:15.078Z,14.82
2023-05-12T20:39:23.694Z,11.85
2023-05-12T20:41:35.256Z,11.75
2023-05-12T20:43:48.231Z,12.68
2023-05-12T20:46:05.533Z,12.15
2023-05-12T20:48:16.709Z,15.88
2023-05-12T20:50:28.176Z,13.77
2023-05-12T20:52:42.127Z,15.10
2023-05-12T20:54:53.582Z,16.77
2023-05-12T20:57:00.466Z,12.32
2023-05-12T20:59:06.602Z,12.77
2023-05-12T21:01:17.978Z,16.38
2023-05-12T21:03:29.315Z,12.07
2023-05-12T21:05:37.763Z,12.07
2023-05-12T21:07:49.041Z,13.43
2023-05-12T21:09:53.858Z,12.13
2023-05-12T21:11:55.286Z,11.98
2023-05-12T21:13:56.799Z,13.73
2023-05-12T21:15:58.290Z,20.13
2023-05-12T21:18:00.017Z,15.60
2023-05-12T21:20:01.546Z,15.35
2023-05-12T21:22:03.578Z,14.10
2023-05-12T21:24:07.956Z,11.07
2023-05-12T21:26:12.681Z,16.35
2023-05-12T21:28:16.763Z,15.30
2023-05-12T21:30:18.371Z,20.67
2023-05-12T21:32:19.932Z,16.75
2023-05-12T21:36:25.622Z,13.23
2023-05-12T21:38:27.157Z,16.83
2023-05-12T21:40:52.544Z,21.35
2023-05-12T21:42:53.959Z,15.77
2023-05-12T21:44:55.404Z,14.27
2023-05-12T21:49:01.663Z,16.08
2023-05-12T21:51:06.162Z,15.55
2023-05-12T21:53:08.006Z,16.40
2023-05-12T21:55:28.349Z,16.77
2023-05-12T21:57:29.997Z,17.95
2023-05-12T21:59:31.652Z,17.23
2023-05-12T22:01:35.930Z,18.95
2023-05-12T22:03:37.527Z,17.20
2023-05-12T22:05:39.391Z,17.75
2023-05-12T22:07:41.221Z,18.75
2023-05-12T22:09:42.849Z,15.63
2023-05-12T22:11:45.097Z,19.50
2023-05-12T22:13:49.560Z,18.77
2023-05-12T22:15:53.985Z,15.13
2023-05-12T22:17:58.227Z,21.33
2023-05-12T22:20:02.659Z,14.27
2023-05-12T22:22:22.934Z,17.35
2023-05-12T22:24:24.757Z,16.80
2023-05-12T22:26:26.373Z,19.75
2023-05-12T22:28:30.964Z,18.77
2023-05-12T22:30:36.411Z,19.25
2023-05-12T22:32:37.984Z,16.98
2023-05-12T22:34:39.701Z,16.05
2023-05-12T22:36:41.193Z,20.15
2023-05-12T22:38:42.752Z,16.50
2023-05-12T22:40:44.371Z,17.55
2023-05-12T22:42:48.650Z,19.17
2023-05-12T22:44:53.228Z,20.00
2023-05-12T22:46:57.687Z,27.48
2023-05-12T22:49:01.872Z,19.67
2023-05-12T22:51:03.441Z,17.23
2023-05-12T22:53:04.919Z,22.90
2023-05-12T22:57:13.332Z,19.33
2023-05-12T22:59:14.820Z,24.63
2023-05-12T23:01:16.372Z,18.90
2023-05-12T23:03:17.922Z,17.98
2023-05-12T23:05:19.671Z,21.38
2023-05-12T23:07:24.042Z,23.95
2023-05-12T23:09:28.140Z,18.17
2023-05-12T23:11:29.840Z,19.92
2023-05-12T23:13:34.269Z,15.88
2023-05-12T23:15:35.960Z,17.48
2023-05-12T23:17:37.478Z,17.70
2023-05-12T23:19:42.067Z,17.80
2023-05-12T23:21:43.625Z,16.58
2023-05-12T23:23:48.002Z,17.08
2023-05-12T23:26:08.967Z,20.15
2023-05-12T23:28:13.076Z,17.33
2023-05-12T23:30:14.635Z,23.38
2023-05-12T23:32:16.169Z,19.58
2023-05-12T23:34:17.873Z,20.42
2023-05-12T23:36:19.390Z,20.67
2023-05-12T23:38:20.984Z,18.23
2023-05-12T23:40:25.020Z,20.05
2023-05-12T23:42:29.493Z,19.08
2023-05-12T23:44:33.941Z,16.92
2023-05-12T23:46:40.738Z,17.20
2023-05-12T23:48:44.371Z,17.50
2023-05-12T23:50:50.794Z,16.00
2023-05-12T23:52:58.131Z,15.23
2023-05-12T23:55:04.298Z,13.30
2023-05-12T23:57:07.343Z,15.85
2023-05-12T23:59:29.648Z,17.90
